»·PEaware :: N1399 KSAN-KIPL

N1399 :: KSAN-KIPL

FLIGHT INFORMATION

Flight Status: Arrived
Operator: Privately registered:
United States
More flights under this callsign
Pilot: David C. (16084)
Aircraft: PIPER PA-31/31P NAVAJO CHIEFTAIN
(PA31)
More flights by this aircraft type
Origin: KSAN San Diego Intl-Lindbergh
United States
Destination: KIPL Imperial Co
United States
More flights between these airports :: More routes between these airports
Route: BRDR7 IPL
File this flight plan on PilotEdge
Remarks:
Altitude:
(Current/Filed)
9,000ft
Speed:
(Current/Filed)
269kts
Departed: 02-Oct-18 12:54 PM
Arrived: 02-Oct-18 01:30 PM
Distance/Time
Traveled:
82nm/0:36
Distance/Time
To Go:
Arrived

Flight Plot

Page will automatically refresh every two minutes.


Map Options




Map Legend


Flown Route
Filed Route
Departure Airport
Arrival Airport
Navaid (VOR, NDB)
Fix

Horizontal Profiles

Position Reports

Time Latitude Longitude Heading Altitude Ground
Speed
02-Oct-18 12:43 32.732232 -117.177218 194 21ft 0kts
02-Oct-18 12:44 32.732232 -117.177218 194 21ft 0kts
02-Oct-18 12:45 32.732232 -117.177218 194 21ft 0kts
02-Oct-18 12:46 32.732232 -117.177218 194 21ft 0kts
02-Oct-18 12:47 32.732232 -117.177218 194 21ft 0kts
02-Oct-18 12:48 32.732232 -117.177218 194 21ft 0kts
02-Oct-18 12:49 32.732232 -117.177218 194 21ft 0kts
02-Oct-18 12:50 32.732232 -117.177218 194 21ft 0kts
02-Oct-18 12:51 32.732232 -117.177218 194 21ft 0kts
02-Oct-18 12:52 32.732232 -117.177218 194 21ft 0kts
02-Oct-18 12:53 32.731904 -117.177320 190 21ft 7kts
02-Oct-18 12:54 32.730924 -117.175434 140 21ft 0kts
02-Oct-18 12:55 32.730201 -117.175544 262 21ft 9kts
02-Oct-18 12:56 32.737670 -117.201388 285 951ft 132kts
02-Oct-18 12:57 32.749004 -117.241035 286 2567ft 147kts
02-Oct-18 12:58 32.762574 -117.286952 286 4092ft 148kts
02-Oct-18 12:59 32.740005 -117.299740 148 6027ft 139kts
02-Oct-18 13:00 32.712584 -117.270068 141 7955ft 144kts
02-Oct-18 13:01 32.684210 -117.236141 139 9005ft 185kts
02-Oct-18 13:02 32.647106 -117.191025 138 9003ft 205kts
02-Oct-18 13:03 32.619787 -117.136631 99 9009ft 217kts
02-Oct-18 13:04 32.615563 -117.068545 97 9007ft 219kts
02-Oct-18 13:05 32.611501 -116.999617 96 9004ft 217kts
02-Oct-18 13:06 32.615086 -116.930816 83 9002ft 218kts
02-Oct-18 13:07 32.622036 -116.861871 83 9000ft 217kts
02-Oct-18 13:08 32.628833 -116.792964 83 9002ft 216kts
02-Oct-18 13:09 32.635612 -116.724119 83 9000ft 215kts
02-Oct-18 13:10 32.642361 -116.655119 83 9004ft 215kts
02-Oct-18 13:11 32.649024 -116.586729 82 9001ft 215kts
02-Oct-18 13:12 32.655547 -116.519331 83 9001ft 215kts
02-Oct-18 13:13 32.662111 -116.451192 83 9002ft 216kts
02-Oct-18 13:14 32.668614 -116.382932 83 8992ft 216kts
02-Oct-18 13:15 32.674759 -116.318497 84 8967ft 216kts
02-Oct-18 13:16 32.681088 -116.251838 85 8939ft 215kts
02-Oct-18 13:17 32.687336 -116.185460 85 8922ft 214kts
02-Oct-18 13:18 32.693393 -116.120186 86 8907ft 213kts
02-Oct-18 13:19 32.699445 -116.054954 86 8907ft 212kts
02-Oct-18 13:20 32.705455 -115.989936 86 8911ft 212kts
02-Oct-18 13:21 32.711420 -115.924940 86 8906ft 212kts
02-Oct-18 13:22 32.717357 -115.860095 85 8907ft 212kts
02-Oct-18 13:23 32.722988 -115.796283 88 8825ft 188kts
02-Oct-18 13:24 32.726329 -115.745454 88 6604ft 170kts
02-Oct-18 13:25 32.746138 -115.703027 46 4189ft 156kts
02-Oct-18 13:26 32.775168 -115.672761 44 2520ft 152kts
02-Oct-18 13:27 32.804523 -115.642403 41 1938ft 159kts
02-Oct-18 13:28 32.839718 -115.621788 17 1417ft 135kts
02-Oct-18 13:29 32.864215 -115.603976 77 943ft 95kts
02-Oct-18 13:30 32.853214 -115.585852 153 283ft 78kts
02-Oct-18 13:31 32.836438 -115.575568 152 -49ft 63kts
02-Oct-18 13:32 32.835205 -115.573224 1 -49ft 0kts

Navigation Log

Ident Type
Flight plan parsing failed, navigation log unavailable